createdAt,value
2019-03-17T00:02:05.290Z,62.81
2019-03-17T00:04:41.132Z,63.09
2019-03-17T00:07:15.709Z,63.41
2019-03-17T00:09:50.291Z,63.41
2019-03-17T00:12:25.261Z,63.42
2019-03-17T00:15:05.180Z,63.32
2019-03-17T00:17:36.271Z,63.36
2019-03-17T00:20:11.487Z,63.33
2019-03-17T00:22:46.035Z,63.73
2019-03-17T00:25:20.741Z,63.79
2019-03-17T00:27:53.715Z,63.69
2019-03-17T00:30:28.293Z,63.69
2019-03-17T00:33:03.305Z,64.04
2019-03-17T00:35:37.976Z,64.05
2019-03-17T00:38:12.630Z,64.08
2019-03-17T00:40:47.296Z,64.08
2019-03-17T00:43:24.706Z,64.07
2019-03-17T00:45:59.289Z,63.96
2019-03-17T00:48:33.779Z,63.79
2019-03-17T00:51:07.403Z,63.74
2019-03-17T00:53:41.806Z,64.02
2019-03-17T00:56:14.862Z,63.88
2019-03-17T00:58:49.266Z,63.92
2019-03-17T01:01:24.964Z,63.97
2019-03-17T01:03:59.802Z,63.95
2019-03-17T01:06:34.155Z,63.95
2019-03-17T01:09:09.420Z,64.14
2019-03-17T01:11:44.442Z,64.35
2019-03-17T01:14:18.994Z,64.33
2019-03-17T01:16:53.492Z,64.16
2019-03-17T01:19:28.287Z,64.10
2019-03-17T01:22:02.949Z,63.90
2019-03-17T01:24:37.437Z,63.50
2019-03-17T01:27:12.122Z,63.50
2019-03-17T01:29:46.793Z,63.59
2019-03-17T01:32:21.290Z,63.86
2019-03-17T01:35:08.253Z,63.79
2019-03-17T01:37:31.078Z,63.76
2019-03-17T01:40:05.704Z,63.89
2019-03-17T01:42:40.277Z,63.90
2019-03-17T01:45:15.137Z,63.94
2019-03-17T01:47:49.688Z,63.85
2019-03-17T01:50:24.277Z,63.69
2019-03-17T01:52:58.949Z,63.48
2019-03-17T01:55:33.333Z,63.34
2019-03-17T01:58:07.958Z,63.20
2019-03-17T02:00:42.698Z,62.79
2019-03-17T02:03:17.291Z,63.02
2019-03-17T02:05:51.954Z,63.02
2019-03-17T02:08:26.699Z,62.78
2019-03-17T02:11:01.301Z,62.96
2019-03-17T02:13:35.958Z,62.87
2019-03-17T02:16:10.693Z,62.56
2019-03-17T02:18:45.290Z,62.56
2019-03-17T02:21:19.942Z,62.83
2019-03-17T02:23:54.342Z,62.91
2019-03-17T02:26:29.139Z,63.08
2019-03-17T02:29:03.720Z,63.11
2019-03-17T02:31:38.298Z,63.11
2019-03-17T02:34:13.148Z,63.12
2019-03-17T02:36:47.894Z,63.13
2019-03-17T02:39:21.074Z,63.06
2019-03-17T02:41:55.328Z,63.10
2019-03-17T02:44:29.937Z,62.95
2019-03-17T02:47:03.868Z,62.61
2019-03-17T02:49:38.265Z,62.46
2019-03-17T02:52:13.175Z,62.21
2019-03-17T02:54:47.745Z,61.89
2019-03-17T02:57:22.294Z,61.65
2019-03-17T02:59:56.955Z,61.32
2019-03-17T03:02:30.284Z,60.94
2019-03-17T03:05:04.648Z,60.56
2019-03-17T03:07:40.086Z,60.32
2019-03-17T03:10:15.186Z,60.32
2019-03-17T03:12:50.360Z,59.94
2019-03-17T03:15:24.955Z,59.74
2019-03-17T03:17:59.749Z,59.58
2019-03-17T03:20:34.348Z,59.32
2019-03-17T03:25:22.953Z,58.69
2019-03-17T03:27:56.288Z,58.39
2019-03-17T03:30:30.737Z,57.95
2019-03-17T03:33:05.138Z,57.95
2019-03-17T03:35:39.758Z,56.74
2019-03-17T03:38:12.709Z,56.12
2019-03-17T03:40:47.115Z,56.12
2019-03-17T03:43:21.901Z,55.54
2019-03-17T03:45:56.290Z,55.54
2019-03-17T03:48:30.880Z,55.45
2019-03-17T03:51:04.074Z,55.21
2019-03-17T03:53:38.293Z,54.92
2019-03-17T03:56:12.728Z,54.63
2019-03-17T03:58:47.290Z,54.42
2019-03-17T04:01:21.756Z,54.10
2019-03-17T04:03:56.291Z,53.97
2019-03-17T04:06:30.898Z,53.83
2019-03-17T04:09:05.071Z,53.66
2019-03-17T04:11:38.092Z,53.55
2019-03-17T04:14:13.654Z,53.20
2019-03-17T04:16:48.280Z,53.20
2019-03-17T04:19:22.902Z,53.24
2019-03-17T04:21:56.282Z,53.15
2019-03-17T04:24:30.677Z,52.80
2019-03-17T04:27:05.281Z,52.80
2019-03-17T04:29:39.960Z,52.51
2019-03-17T04:32:14.271Z,51.88
2019-03-17T04:34:48.769Z,51.85
2019-03-17T04:37:23.261Z,51.21
2019-03-17T04:39:58.279Z,50.65
2019-03-17T04:42:33.752Z,50.65
2019-03-17T04:45:08.649Z,50.47
2019-03-17T04:47:43.265Z,50.14
2019-03-17T04:50:17.824Z,49.88
2019-03-17T04:52:52.113Z,49.08
2019-03-17T04:55:25.025Z,48.55
2019-03-17T05:00:44.963Z,46.76
2019-03-17T05:03:21.285Z,46.76
2019-03-17T05:05:56.101Z,46.63
2019-03-17T05:08:31.300Z,46.13
2019-03-17T05:11:05.729Z,46.04
2019-03-17T05:13:40.275Z,45.63
2019-03-17T05:16:14.735Z,44.80
2019-03-17T05:18:49.284Z,44.60
2019-03-17T05:21:23.739Z,44.60
2019-03-17T05:23:58.297Z,44.09
2019-03-17T05:26:32.956Z,43.87
2019-03-17T05:29:07.739Z,43.79
2019-03-17T05:31:42.277Z,43.51
2019-03-17T05:34:16.750Z,43.03
2019-03-17T05:36:51.131Z,42.89
2019-03-17T05:39:26.667Z,42.83
2019-03-17T05:42:01.077Z,42.14
2019-03-17T05:44:35.608Z,42.06
2019-03-17T05:47:10.285Z,42.06
2019-03-17T05:49:44.911Z,41.60
2019-03-17T05:52:17.853Z,41.50
2019-03-17T05:54:53.890Z,41.45
2019-03-17T05:57:26.867Z,41.19
2019-03-17T06:00:01.001Z,41.12
2019-03-17T06:02:36.686Z,41.07
2019-03-17T06:05:11.655Z,40.85
2019-03-17T06:07:46.270Z,40.67
2019-03-17T06:10:20.688Z,40.45
2019-03-17T06:12:55.270Z,40.26
2019-03-17T06:15:29.729Z,40.06
2019-03-17T06:18:04.267Z,39.53
2019-03-17T06:20:38.711Z,38.99
2019-03-17T06:23:11.657Z,38.68
2019-03-17T06:25:45.946Z,38.63
2019-03-17T06:28:21.667Z,38.73
2019-03-17T06:30:55.118Z,38.75
2019-03-17T06:33:29.661Z,38.49
2019-03-17T06:36:04.115Z,38.49
2019-03-17T06:38:38.868Z,38.69
2019-03-17T06:41:13.286Z,38.65
2019-03-17T06:43:47.774Z,38.67
2019-03-17T06:46:20.749Z,38.43
2019-03-17T06:48:55.134Z,37.94
2019-03-17T06:51:29.709Z,37.49
2019-03-17T06:54:04.289Z,36.68
2019-03-17T06:56:38.710Z,35.79
2019-03-17T06:59:13.278Z,35.74
2019-03-17T07:01:47.743Z,34.97
2019-03-17T07:04:22.288Z,33.78
2019-03-17T07:06:56.881Z,33.78
2019-03-17T07:09:32.569Z,33.62
2019-03-17T07:12:07.142Z,32.73
2019-03-17T07:14:41.943Z,32.58
2019-03-17T07:17:15.104Z,32.66
2019-03-17T07:19:49.944Z,31.95
2019-03-17T07:22:25.763Z,31.95
2019-03-17T07:25:00.358Z,31.82
2019-03-17T07:27:34.936Z,30.98
2019-03-17T07:30:10.667Z,30.40
2019-03-17T07:32:44.940Z,30.14
2019-03-17T07:35:18.184Z,29.15
2019-03-17T07:37:57.002Z,28.46
2019-03-17T07:40:28.938Z,28.46
2019-03-17T07:43:03.319Z,27.46
2019-03-17T07:45:37.953Z,27.46
2019-03-17T07:48:12.666Z,26.71
2019-03-17T07:50:47.266Z,25.83
2019-03-17T07:53:22.294Z,25.65
2019-03-17T07:55:57.097Z,24.98
2019-03-17T07:58:31.739Z,24.66
2019-03-17T08:01:06.272Z,24.66
2019-03-17T08:03:40.932Z,24.07
2019-03-17T08:06:14.105Z,22.91
2019-03-17T08:08:48.371Z,22.91
2019-03-17T08:11:23.110Z,22.64
2019-03-17T08:13:57.855Z,22.64
2019-03-17T08:16:31.453Z,22.13
2019-03-17T08:19:06.307Z,21.90
2019-03-17T08:21:43.304Z,22.16
2019-03-17T08:24:17.307Z,22.38
2019-03-17T08:26:51.883Z,22.12
2019-03-17T08:29:25.067Z,22.30
2019-03-17T08:31:59.389Z,21.81
2019-03-17T08:34:34.310Z,21.47
2019-03-17T08:37:09.097Z,21.27
2019-03-17T08:39:43.785Z,21.44
2019-03-17T08:42:18.583Z,20.67
2019-03-17T08:44:53.290Z,20.43
2019-03-17T08:47:27.958Z,21.19
2019-03-17T08:50:02.690Z,21.51
2019-03-17T08:52:37.277Z,21.51
2019-03-17T08:55:12.057Z,21.46
2019-03-17T08:57:46.706Z,21.13
2019-03-17T09:00:19.860Z,21.88
2019-03-17T09:02:54.284Z,21.62
2019-03-17T09:05:29.108Z,21.62
2019-03-17T09:08:03.884Z,21.25
2019-03-17T09:10:38.315Z,20.63
2019-03-17T09:13:13.263Z,20.05
2019-03-17T09:15:48.284Z,19.23
2019-03-17T09:18:23.201Z,19.96
2019-03-17T09:20:58.306Z,19.91
2019-03-17T09:23:32.884Z,19.98
2019-03-17T09:26:07.436Z,19.78
2019-03-17T09:28:42.111Z,19.78
2019-03-17T09:31:16.748Z,20.44
2019-03-17T09:33:50.072Z,20.44
2019-03-17T09:36:25.110Z,20.24
2019-03-17T09:38:59.869Z,20.85
2019-03-17T09:41:34.299Z,20.65
2019-03-17T09:44:08.751Z,21.28
2019-03-17T09:46:43.279Z,20.72
2019-03-17T09:49:17.950Z,20.83
2019-03-17T09:51:52.369Z,20.70
2019-03-17T09:54:27.080Z,20.89
2019-03-17T09:57:01.664Z,20.55
2019-03-17T09:59:36.275Z,20.55
2019-03-17T10:02:10.916Z,20.40
2019-03-17T10:04:45.343Z,20.65
2019-03-17T10:07:19.929Z,20.51
2019-03-17T10:09:53.150Z,20.39
2019-03-17T10:12:27.739Z,21.65
2019-03-17T10:15:02.326Z,21.65
2019-03-17T10:17:36.943Z,21.43
2019-03-17T10:20:14.938Z,21.43
2019-03-17T10:22:49.982Z,21.82
2019-03-17T10:25:24.666Z,21.82
2019-03-17T10:27:57.689Z,22.01
2019-03-17T10:30:32.266Z,21.85
2019-03-17T10:34:37.116Z,21.39
2019-03-17T10:37:11.795Z,21.32
2019-03-17T10:39:44.862Z,21.57
2019-03-17T10:42:19.278Z,21.50
2019-03-17T10:44:53.933Z,21.78
2019-03-17T10:47:28.048Z,21.91
2019-03-17T10:50:02.323Z,21.67
2019-03-17T10:52:37.082Z,21.47
2019-03-17T10:55:13.041Z,21.47
2019-03-17T10:57:47.321Z,21.10
2019-03-17T11:00:21.953Z,20.44
2019-03-17T11:02:56.347Z,20.44
2019-03-17T11:05:30.952Z,20.37
2019-03-17T11:08:05.336Z,20.21
2019-03-17T11:10:40.126Z,20.19
2019-03-17T11:13:14.941Z,20.37
2019-03-17T11:15:49.790Z,19.66
2019-03-17T11:18:22.823Z,19.66
2019-03-17T11:20:57.357Z,19.69
2019-03-17T11:23:31.946Z,19.26
2019-03-17T11:26:06.945Z,18.93
2019-03-17T11:28:41.361Z,19.14
2019-03-17T11:31:16.104Z,18.64
2019-03-17T11:33:50.740Z,19.24
2019-03-17T11:36:25.385Z,19.19
2019-03-17T11:39:00.135Z,19.34
2019-03-17T11:41:35.256Z,19.05
2019-03-17T11:44:09.870Z,19.64
2019-03-17T11:46:44.067Z,20.33
2019-03-17T11:49:18.407Z,20.08
2019-03-17T11:51:52.947Z,19.93
2019-03-17T11:54:26.275Z,19.12
2019-03-17T11:57:01.143Z,19.63
2019-03-17T11:59:35.682Z,19.63
2019-03-17T12:02:10.307Z,21.19
2019-03-17T12:04:44.937Z,21.00
2019-03-17T12:07:19.574Z,20.77
2019-03-17T12:09:54.258Z,19.41
2019-03-17T12:12:28.952Z,19.20
2019-03-17T12:15:03.927Z,19.15
2019-03-17T12:17:38.845Z,19.22
2019-03-17T12:20:13.934Z,19.16
2019-03-17T12:22:49.302Z,18.82
2019-03-17T12:25:23.945Z,20.72
2019-03-17T12:27:58.916Z,20.03
2019-03-17T12:30:33.619Z,18.64
2019-03-17T12:33:09.688Z,18.64
2019-03-17T12:35:42.659Z,19.01
2019-03-17T12:41:01.909Z,22.25
2019-03-17T12:43:36.297Z,22.25
2019-03-17T12:46:13.371Z,23.58
2019-03-17T12:48:47.947Z,21.97
2019-03-17T12:51:22.343Z,21.59
2019-03-17T12:53:57.269Z,21.59
2019-03-17T12:56:32.275Z,21.41
2019-03-17T12:59:06.943Z,20.67
2019-03-17T13:01:41.310Z,20.50
2019-03-17T13:04:16.109Z,21.26
2019-03-17T13:06:50.797Z,20.55
2019-03-17T13:09:24.034Z,20.55
2019-03-17T13:11:58.360Z,21.03
2019-03-17T13:14:32.952Z,19.31
2019-03-17T13:17:07.612Z,19.92
2019-03-17T13:19:42.076Z,21.19
2019-03-17T13:22:17.961Z,21.19
2019-03-17T13:24:52.660Z,20.77
2019-03-17T13:27:27.110Z,20.77
2019-03-17T13:30:01.656Z,19.10
2019-03-17T13:32:36.072Z,19.10
2019-03-17T13:35:11.280Z,19.66
2019-03-17T13:37:45.949Z,20.82
2019-03-17T13:40:28.828Z,23.55
2019-03-17T13:42:56.365Z,24.26
2019-03-17T13:45:30.945Z,24.37
2019-03-17T13:48:05.315Z,22.61
2019-03-17T13:50:39.933Z,21.07
2019-03-17T13:53:14.303Z,23.96
2019-03-17T13:55:49.088Z,25.07
2019-03-17T13:58:23.588Z,24.22
2019-03-17T14:00:58.257Z,23.10
2019-03-17T14:03:32.766Z,24.44
2019-03-17T14:06:07.254Z,27.23
2019-03-17T14:08:41.944Z,28.68
2019-03-17T14:11:16.411Z,29.95
2019-03-17T14:13:51.063Z,31.22
2019-03-17T14:16:25.865Z,31.72
2019-03-17T14:18:58.857Z,32.21
2019-03-17T14:21:33.118Z,31.55
2019-03-17T14:24:09.264Z,25.83
2019-03-17T14:26:43.914Z,25.69
2019-03-17T14:29:18.282Z,25.69
2019-03-17T14:31:52.937Z,27.19
2019-03-17T14:34:27.343Z,29.75
2019-03-17T14:37:01.878Z,31.35
2019-03-17T14:39:34.861Z,32.88
2019-03-17T14:42:09.268Z,33.18
2019-03-17T14:44:43.941Z,33.50
2019-03-17T14:47:18.657Z,34.82
2019-03-17T14:49:53.139Z,35.28
2019-03-17T14:52:27.776Z,37.27
2019-03-17T14:55:02.098Z,37.27
2019-03-17T14:57:36.875Z,37.99
2019-03-17T15:00:15.269Z,39.11
2019-03-17T15:02:49.742Z,40.30
2019-03-17T15:05:25.447Z,40.49
2019-03-17T15:07:59.948Z,40.83
2019-03-17T15:10:34.422Z,41.39
2019-03-17T15:13:08.940Z,44.75
2019-03-17T15:15:43.365Z,47.23
2019-03-17T15:18:18.282Z,49.02
2019-03-17T15:20:53.127Z,52.11
2019-03-17T15:23:27.943Z,52.11
2019-03-17T15:26:02.354Z,53.23
2019-03-17T15:28:37.341Z,54.09
2019-03-17T15:31:12.583Z,54.82
2019-03-17T15:33:47.269Z,55.68
2019-03-17T15:36:21.905Z,56.88
2019-03-17T15:38:56.261Z,57.29
2019-03-17T15:41:31.129Z,58.02
2019-03-17T15:44:05.946Z,57.55
2019-03-17T15:46:40.286Z,57.51
2019-03-17T15:49:14.942Z,58.46
2019-03-17T15:51:49.510Z,58.34
2019-03-17T15:54:24.254Z,58.34
2019-03-17T15:56:59.257Z,58.01
2019-03-17T15:59:33.774Z,57.60
2019-03-17T16:02:08.288Z,58.07
2019-03-17T16:04:42.701Z,56.05
2019-03-17T16:07:17.278Z,54.98
2019-03-17T16:10:37.953Z,54.41
2019-03-17T16:13:12.755Z,54.41
2019-03-17T16:15:46.076Z,53.34
2019-03-17T16:18:20.303Z,54.54
2019-03-17T16:20:55.115Z,55.39
2019-03-17T16:23:29.717Z,55.57
2019-03-17T16:26:04.599Z,55.57
2019-03-17T16:28:39.183Z,55.89
2019-03-17T16:31:13.628Z,56.05
2019-03-17T16:33:48.133Z,56.05
2019-03-17T16:36:22.752Z,56.60
2019-03-17T16:38:57.314Z,56.69
2019-03-17T16:41:42.826Z,57.12
2019-03-17T16:44:08.323Z,57.12
2019-03-17T16:46:43.332Z,57.42
2019-03-17T16:49:17.946Z,57.29
2019-03-17T16:51:52.693Z,58.57
2019-03-17T16:54:25.859Z,59.11
2019-03-17T16:56:59.634Z,59.09
2019-03-17T16:59:34.284Z,59.09
2019-03-17T17:02:09.298Z,59.14
2019-03-17T17:04:44.343Z,59.33
2019-03-17T17:09:53.478Z,58.96
2019-03-17T17:12:32.773Z,58.68
2019-03-17T17:15:10.307Z,57.85
2019-03-17T17:17:45.240Z,57.79
2019-03-17T17:20:25.802Z,57.58
2019-03-17T17:23:00.704Z,56.61
2019-03-17T17:25:35.285Z,56.61
2019-03-17T17:28:10.137Z,57.43
2019-03-17T17:30:45.115Z,57.02
2019-03-17T17:33:19.949Z,56.81
2019-03-17T17:35:54.677Z,56.77
2019-03-17T17:38:29.308Z,56.77
2019-03-17T17:41:04.128Z,56.63
2019-03-17T17:43:38.756Z,56.51
2019-03-17T17:46:13.354Z,56.49
2019-03-17T17:48:48.076Z,56.60
2019-03-17T17:51:22.669Z,57.68
2019-03-17T17:53:57.251Z,57.68
2019-03-17T17:56:32.490Z,57.93
2019-03-17T17:59:07.119Z,57.99
2019-03-17T18:01:42.029Z,57.95
2019-03-17T18:04:16.371Z,57.99
2019-03-17T18:06:51.128Z,57.85
2019-03-17T18:09:25.935Z,57.61
2019-03-17T18:14:15.698Z,57.53
2019-03-17T18:16:48.870Z,57.68
2019-03-17T18:19:23.286Z,57.35
2019-03-17T18:21:57.940Z,57.23
2019-03-17T18:24:32.348Z,56.66
2019-03-17T18:27:07.239Z,56.66
2019-03-17T18:29:42.095Z,56.35
2019-03-17T18:32:17.035Z,56.28
2019-03-17T18:34:53.559Z,56.70
2019-03-17T18:37:28.264Z,56.23
2019-03-17T18:40:03.260Z,56.27
2019-03-17T18:42:38.274Z,56.34
2019-03-17T18:45:15.697Z,55.97
2019-03-17T18:47:50.279Z,56.46
2019-03-17T18:50:24.722Z,56.13
2019-03-17T18:52:59.323Z,56.16
2019-03-17T18:55:34.277Z,56.15
2019-03-17T18:58:08.843Z,55.65
2019-03-17T19:00:43.291Z,55.70
2019-03-17T19:03:18.114Z,55.70
2019-03-17T19:05:52.778Z,56.12
2019-03-17T19:08:25.999Z,56.43
2019-03-17T19:11:00.337Z,55.91
2019-03-17T19:13:34.939Z,55.76
2019-03-17T19:16:09.694Z,55.29
2019-03-17T19:18:44.288Z,55.29
2019-03-17T19:21:19.116Z,55.51
2019-03-17T19:23:53.723Z,55.51
2019-03-17T19:26:28.247Z,55.51
2019-03-17T19:29:03.682Z,55.12
2019-03-17T19:31:38.486Z,55.83
2019-03-17T19:34:13.067Z,56.32
2019-03-17T19:36:48.680Z,56.60
2019-03-17T19:40:49.127Z,56.45
2019-03-17T19:43:23.730Z,56.32
2019-03-17T19:45:57.050Z,56.34
2019-03-17T19:48:31.330Z,56.64
2019-03-17T19:51:05.944Z,57.32
2019-03-17T19:53:40.268Z,58.26
2019-03-17T19:56:14.713Z,58.71
2019-03-17T19:58:49.281Z,59.26
2019-03-17T20:01:23.737Z,59.04
2019-03-17T20:03:58.269Z,59.05
2019-03-17T20:06:32.939Z,58.92
2019-03-17T20:09:08.099Z,59.17
2019-03-17T20:11:42.734Z,59.01
2019-03-17T20:14:17.279Z,59.01
2019-03-17T20:16:51.817Z,58.33
2019-03-17T20:19:25.030Z,58.47
2019-03-17T20:21:58.087Z,57.96
2019-03-17T20:24:33.381Z,57.77
2019-03-17T20:27:07.930Z,57.76
2019-03-17T20:29:43.439Z,58.23
2019-03-17T20:32:18.283Z,58.75
2019-03-17T20:34:55.683Z,58.61
2019-03-17T20:39:10.290Z,59.48
2019-03-17T20:41:45.292Z,58.74
2019-03-17T20:44:20.023Z,58.74
2019-03-17T20:46:54.949Z,59.14
2019-03-17T20:51:28.765Z,59.13
2019-03-17T20:54:03.376Z,59.26
2019-03-17T20:56:38.306Z,58.90
2019-03-17T20:59:13.752Z,59.00
2019-03-17T21:01:48.598Z,59.00
2019-03-17T21:04:24.283Z,59.23
2019-03-17T21:06:59.008Z,59.16
2019-03-17T21:09:33.756Z,59.59
2019-03-17T21:12:08.294Z,59.38
2019-03-17T21:14:42.952Z,59.05
2019-03-17T21:17:16.034Z,58.85
2019-03-17T21:19:49.487Z,59.12
2019-03-17T21:22:26.120Z,59.04
2019-03-17T21:25:00.736Z,59.34
2019-03-17T21:27:35.292Z,59.34
2019-03-17T21:30:19.390Z,59.33
2019-03-17T21:32:53.948Z,59.37
2019-03-17T21:35:27.113Z,59.38
2019-03-17T21:38:01.354Z,59.50
2019-03-17T21:44:01.763Z,59.56
2019-03-17T21:46:36.305Z,59.32
2019-03-17T21:49:11.139Z,59.34
2019-03-17T21:51:45.807Z,59.41
2019-03-17T21:54:19.288Z,59.36
2019-03-17T21:56:54.076Z,59.64
2019-03-17T21:59:28.647Z,59.57
2019-03-17T22:02:12.377Z,59.57
2019-03-17T22:04:39.364Z,59.14
2019-03-17T22:07:13.915Z,59.24
2019-03-17T22:09:50.335Z,59.08
2019-03-17T22:12:24.963Z,58.97
2019-03-17T22:14:58.097Z,58.54
2019-03-17T22:17:31.074Z,59.03
2019-03-17T22:20:05.139Z,59.21
2019-03-17T22:22:39.640Z,59.45
2019-03-17T22:25:15.190Z,59.45
2019-03-17T22:27:49.711Z,59.28
2019-03-17T22:30:24.304Z,59.48
2019-03-17T22:32:58.891Z,60.02
2019-03-17T22:35:33.407Z,60.62
2019-03-17T22:38:07.875Z,61.22
2019-03-17T22:40:42.277Z,61.84
2019-03-17T22:43:16.760Z,62.09
2019-03-17T22:45:51.268Z,62.45
2019-03-17T22:48:25.934Z,62.48
2019-03-17T22:51:00.360Z,62.98
2019-03-17T22:53:34.896Z,62.68
2019-03-17T22:56:07.874Z,63.08
2019-03-17T22:58:42.134Z,62.87
2019-03-17T23:01:17.181Z,63.28
2019-03-17T23:03:51.903Z,63.16
2019-03-17T23:06:25.064Z,63.08
2019-03-17T23:08:59.288Z,62.70
2019-03-17T23:11:33.750Z,62.98
2019-03-17T23:14:08.279Z,63.11
2019-03-17T23:16:42.724Z,62.53
2019-03-17T23:19:17.132Z,62.66
2019-03-17T23:21:51.778Z,62.17
2019-03-17T23:24:26.288Z,61.77
2019-03-17T23:27:02.284Z,62.16
2019-03-17T23:29:36.791Z,62.34
2019-03-17T23:32:11.288Z,62.46
2019-03-17T23:34:46.283Z,62.86
2019-03-17T23:37:22.263Z,64.18
2019-03-17T23:39:57.879Z,64.64
2019-03-17T23:42:30.818Z,62.15
2019-03-17T23:45:05.263Z,61.59
2019-03-17T23:47:39.915Z,61.17
2019-03-17T23:50:13.300Z,61.16
2019-03-17T23:52:47.691Z,61.25
2019-03-17T23:55:22.284Z,61.25
2019-03-17T23:57:56.728Z,61.80
